Time;durP1;ratioP1;P1;durP2;ratioP2;P2;SDS_P1;SDS_P2;PMS_P1;PMS_P2;Temp;Humidity;BMP_temperature;BMP_pressure;BME280_temperature;BME280_humidity;BME280_pressure;Samples;Min_cycle;Max_cycle;Signal;HPM_P1;HPM_P2
2021/06/08 00:01:48;;;;;;;0.10;0.10;;;;;;;19.66;58.44;102456.69;5071978;28;20139;-82
2021/06/08 00:04:15;;;;;;;0.88;0.82;;;;;;;19.62;58.71;102457.72;5071784;28;20066;-82
2021/06/08 00:06:42;;;;;;;0.30;0.30;;;;;;;19.62;58.05;102451.50;5072211;28;20033;-82
2021/06/08 00:09:09;;;;;;;0.00;0.00;;;;;;;19.61;58.70;102452.41;5072385;28;20028;-82
2021/06/08 00:11:35;;;;;;;0.10;0.10;;;;;;;19.58;58.76;102461.47;5071879;28;20039;-82
2021/06/08 00:14:03;;;;;;;0.10;0.10;;;;;;;19.59;58.52;102452.47;5071817;28;20040;-82
2021/06/08 00:16:29;;;;;;;0.10;0.10;;;;;;;19.57;58.27;102454.31;5072447;28;20028;-82
2021/06/08 00:18:55;;;;;;;0.10;0.10;;;;;;;19.56;58.34;102456.13;5071752;28;20475;-81
2021/06/08 00:21:22;;;;;;;0.00;0.00;;;;;;;19.54;58.70;102455.28;5071479;28;20089;-82
2021/06/08 00:23:48;;;;;;;0.10;0.10;;;;;;;19.53;57.63;102456.22;5071419;28;20025;-81
2021/06/08 00:26:15;;;;;;;0.10;0.10;;;;;;;19.54;58.29;102463.38;5072281;28;20154;-81
2021/06/08 00:28:41;;;;;;;0.00;0.00;;;;;;;19.51;58.92;102457.19;5071880;28;20348;-82
2021/06/08 00:31:07;;;;;;;0.00;0.00;;;;;;;19.51;58.15;102468.81;5071256;28;20110;-82
2021/06/08 00:33:34;;;;;;;0.10;0.10;;;;;;;19.49;58.72;102459.03;5069812;28;20033;-82
2021/06/08 00:36:00;;;;;;;0.05;0.05;;;;;;;19.47;58.13;102467.16;5071781;28;20043;-83
2021/06/08 00:38:27;;;;;;;0.98;0.98;;;;;;;19.43;58.93;102464.63;5072120;28;20025;-83
2021/06/08 00:40:53;;;;;;;0.03;0.03;;;;;;;19.41;58.39;102456.59;5071983;28;20024;-83
2021/06/08 00:43:24;;;;;;;2.17;1.98;;;;;;;19.43;58.55;102464.63;5072298;28;20040;-83
2021/06/08 00:45:55;;;;;;;0.10;0.10;;;;;;;19.38;58.38;102457.59;5076202;28;20033;-83
2021/06/08 00:48:22;;;;;;;0.10;0.10;;;;;;;19.34;58.99;102465.78;5075427;28;20029;-83
2021/06/08 00:50:49;;;;;;;0.35;0.35;;;;;;;19.30;59.49;102459.66;5076018;28;20040;-83
2021/06/08 00:53:16;;;;;;;0.00;0.00;;;;;;;19.30;58.89;102459.66;5075192;28;20572;-82
2021/06/08 00:55:43;;;;;;;0.52;0.52;;;;;;;19.27;59.08;102464.25;5076086;28;20033;-83
2021/06/08 00:58:09;;;;;;;0.00;0.00;;;;;;;19.23;59.29;102456.25;5075484;28;20035;-83
2021/06/08 01:00:36;;;;;;;0.00;0.00;;;;;;;19.22;58.47;102454.50;5075779;28;20422;-82
2021/06/08 01:03:04;;;;;;;0.55;0.55;;;;;;;19.17;59.17;102466.31;5075515;28;20094;-83
2021/06/08 01:05:31;;;;;;;0.05;0.05;;;;;;;19.15;59.31;102465.47;5075576;28;20025;-82
2021/06/08 01:07:57;;;;;;;0.10;0.10;;;;;;;19.13;59.42;102457.47;5075682;28;20032;-82
2021/06/08 01:10:23;;;;;;;2.40;0.68;;;;;;;19.12;58.76;102460.22;5075255;28;20036;-82
2021/06/08 01:12:50;;;;;;;0.15;0.15;;;;;;;19.09;58.88;102461.19;5074456;28;20020;-82
2021/06/08 01:15:16;;;;;;;0.10;0.10;;;;;;;19.08;59.12;102460.28;5075482;28;20029;-82
2021/06/08 01:17:44;;;;;;;0.10;0.10;;;;;;;19.06;59.22;102469.31;5075172;28;20033;-82
2021/06/08 01:20:11;;;;;;;0.00;0.00;;;;;;;19.03;59.49;102462.25;5075294;28;20032;-82
2021/06/08 01:22:38;;;;;;;0.45;0.45;;;;;;;19.02;59.10;102459.59;5074506;28;20028;-82
2021/06/08 01:25:06;;;;;;;0.10;0.10;;;;;;;18.99;59.85;102460.59;5075302;28;20060;-82
2021/06/08 01:27:33;;;;;;;0.00;0.00;;;;;;;18.97;59.74;102461.56;5074807;28;20028;-82
2021/06/08 01:30:00;;;;;;;0.17;0.17;;;;;;;18.95;59.63;102464.25;5075993;28;20083;-82
2021/06/08 01:32:30;;;;;;;0.60;0.60;;;;;;;18.92;59.97;102461.69;5074359;28;20036;-82
2021/06/08 01:34:57;;;;;;;1.15;1.15;;;;;;;18.89;59.41;102464.41;5075243;28;20036;-82
2021/06/08 01:37:24;;;;;;;0.10;0.10;;;;;;;18.88;59.95;102462.69;5075294;28;20020;-82
2021/06/08 01:39:52;;;;;;;0.20;0.20;;;;;;;18.87;59.62;102459.09;5074965;28;20475;-82
2021/06/08 01:42:19;;;;;;;0.08;0.08;;;;;;;18.86;59.59;102459.13;5075177;28;20383;-82
2021/06/08 01:44:46;;;;;;;0.00;0.00;;;;;;;18.86;59.72;102459.13;5074649;28;20024;-82
2021/06/08 01:47:14;;;;;;;0.10;0.10;;;;;;;18.84;59.76;102460.97;5074921;28;20518;-82
2021/06/08 01:49:41;;;;;;;0.00;0.00;;;;;;;18.81;59.49;102456.59;5074054;28;20028;-82
2021/06/08 01:52:33;;;;;;;0.10;0.10;;;;;;;18.83;59.33;102454.75;5074865;28;20476;-81
2021/06/08 01:55:08;;;;;;;0.17;0.17;;;;;;;18.78;59.40;102454.00;5073056;28;20058;-83
2021/06/08 01:57:43;;;;;;;0.20;0.20;;;;;;;18.75;59.53;102448.69;5064073;28;20486;-83
2021/06/08 02:00:33;;;;;;;0.10;0.10;;;;;;;18.70;59.38;102448.81;5074294;28;20468;-82
2021/06/08 02:06:17;;;;;;;0.40;0.40;;;;;;;18.71;59.53;102458.66;5042612;28;20412;-81
2021/06/08 02:08:56;;;;;;;0.10;0.10;;;;;;;18.64;58.70;102454.41;5053071;28;20026;-81
2021/06/08 02:11:49;;;;;;;0.05;0.05;;;;;;;18.66;59.62;102457.91;5035742;28;20037;-82
2021/06/08 02:14:25;;;;;;;0.10;0.10;;;;;;;18.58;59.78;102457.25;5028961;28;20022;-81
2021/06/08 02:16:57;;;;;;;0.00;0.00;;;;;;;18.50;60.10;102456.56;5030512;28;20430;-81
2021/06/08 02:19:25;;;;;;;0.10;0.10;;;;;;;18.48;59.70;102463.78;5033879;28;20104;-82
2021/06/08 02:21:56;;;;;;;0.93;0.55;;;;;;;18.49;59.09;102461.06;5029358;28;20025;-82
2021/06/08 02:24:26;;;;;;;0.10;0.10;;;;;;;18.44;59.16;102462.97;5026512;28;20038;-82
2021/06/08 02:26:59;;;;;;;0.00;0.00;;;;;;;18.44;59.80;102468.34;5030924;28;20057;-82
2021/06/08 02:29:27;;;;;;;0.10;0.10;;;;;;;18.38;59.78;102464.03;5028640;28;20116;-83
2021/06/08 02:31:55;;;;;;;0.10;0.10;;;;;;;18.35;59.90;102456.06;5028935;28;20034;-83
2021/06/08 02:34:23;;;;;;;0.05;0.05;;;;;;;18.35;59.33;102463.25;5029528;28;20486;-84
2021/06/08 02:36:53;;;;;;;0.20;0.20;;;;;;;18.34;59.69;102458.78;5031140;28;20037;-82
2021/06/08 02:39:22;;;;;;;0.10;0.10;;;;;;;18.29;59.30;102464.28;5034058;28;20034;-84
2021/06/08 02:41:50;;;;;;;0.00;0.00;;;;;;;18.28;59.42;102467.91;5029314;28;20358;-84
2021/06/08 02:44:18;;;;;;;0.00;0.00;;;;;;;18.24;59.90;102468.88;5037283;28;20489;-80
2021/06/08 02:46:45;;;;;;;0.40;0.40;;;;;;;18.22;59.59;102473.44;5035931;28;20045;-82
2021/06/08 02:49:11;;;;;;;0.00;0.00;;;;;;;18.20;59.22;102480.63;5028311;28;20060;-80
2021/06/08 02:51:38;;;;;;;0.08;0.08;;;;;;;18.19;59.56;102478.84;5033569;28;20030;-81
2021/06/08 02:54:05;;;;;;;0.03;0.03;;;;;;;18.15;59.98;102479.88;5024282;28;20026;-82
2021/06/08 02:56:33;;;;;;;0.10;0.10;;;;;;;18.13;59.75;102484.38;5028884;28;20049;-81
2021/06/08 02:59:01;;;;;;;0.05;0.05;;;;;;;18.11;59.32;102481.75;5031495;28;20057;-81
2021/06/08 03:01:28;;;;;;;0.03;0.03;;;;;;;18.06;59.68;102483.66;5034694;28;20128;-81
2021/06/08 03:03:59;;;;;;;0.20;0.20;;;;;;;18.07;58.97;102478.25;5028666;28;20052;-81
2021/06/08 03:06:33;;;;;;;0.00;0.00;;;;;;;18.04;60.06;102474.78;5037886;28;20172;-81
2021/06/08 03:09:06;;;;;;;0.00;0.00;;;;;;;18.03;59.48;102481.06;5028622;28;20037;-81
2021/06/08 03:11:39;;;;;;;0.20;0.20;;;;;;;18.02;58.92;102480.19;5038250;28;20123;-82
2021/06/08 03:14:08;;;;;;;0.52;0.52;;;;;;;17.99;59.57;102485.59;5033037;28;20329;-82
2021/06/08 03:16:39;;;;;;;0.40;0.40;;;;;;;17.96;59.54;102485.69;5018003;28;20060;-81
2021/06/08 03:19:08;;;;;;;0.63;0.63;;;;;;;17.96;59.21;102483.00;5015209;28;20097;-81
2021/06/08 03:21:39;;;;;;;0.00;0.00;;;;;;;17.93;59.27;102480.34;5017542;28;20548;-81
2021/06/08 03:24:10;;;;;;;0.00;0.00;;;;;;;17.87;59.34;102486.78;5018104;28;20064;-80
2021/06/08 03:26:37;;;;;;;0.25;0.25;;;;;;;17.87;59.37;102488.56;5021203;28;20038;-81
2021/06/08 03:29:08;;;;;;;0.00;0.00;;;;;;;17.85;59.39;102485.06;5014519;28;20465;-81
2021/06/08 03:31:37;;;;;;;1.02;1.00;;;;;;;17.83;59.29;102479.72;5014698;28;20037;-81
2021/06/08 03:34:04;;;;;;;0.00;0.00;;;;;;;17.82;59.37;102487.78;5014793;28;20026;-81
2021/06/08 03:36:31;;;;;;;0.10;0.10;;;;;;;17.81;59.23;102486.91;5016218;28;20385;-81
2021/06/08 03:38:59;;;;;;;0.00;0.00;;;;;;;17.83;59.49;102492.25;5001660;28;20469;-80
2021/06/08 03:41:26;;;;;;;0.10;0.10;;;;;;;17.82;59.45;102490.47;5015060;28;20120;-81
2021/06/08 03:43:54;;;;;;;0.10;0.10;;;;;;;17.83;59.16;102489.56;5015738;28;20053;-81
2021/06/08 03:46:24;;;;;;;0.20;0.20;;;;;;;17.85;59.30;102485.91;5015179;28;20064;-81
2021/06/08 03:48:52;;;;;;;0.10;0.10;;;;;;;17.83;59.36;102493.13;5014849;28;20104;-81
2021/06/08 03:51:20;;;;;;;0.10;0.10;;;;;;;17.85;58.95;102487.72;5015690;28;20025;-81
2021/06/08 03:53:47;;;;;;;0.10;0.10;;;;;;;17.82;59.33;102494.06;5020218;28;20507;-81
2021/06/08 03:56:15;;;;;;;0.15;0.15;;;;;;;17.82;59.42;102486.00;5014718;28;20092;-81
2021/06/08 03:58:42;;;;;;;0.10;0.10;;;;;;;17.82;59.05;102490.47;5019771;28;20037;-80
2021/06/08 04:01:09;;;;;;;0.32;0.32;;;;;;;17.84;59.11;102488.66;5012968;28;20030;-81
2021/06/08 04:03:35;;;;;;;0.20;0.20;;;;;;;17.86;59.25;102484.13;5015029;28;20489;-82
2021/06/08 04:06:03;;;;;;;0.10;0.10;;;;;;;17.86;59.38;102492.19;5014511;28;20034;-81
2021/06/08 04:08:30;;;;;;;0.10;0.10;;;;;;;17.88;59.39;102490.31;5014490;28;20087;-81
2021/06/08 04:10:57;;;;;;;0.10;0.10;;;;;;;17.90;59.39;102493.84;5021604;28;20033;-81
2021/06/08 04:13:23;;;;;;;0.10;0.10;;;;;;;17.90;59.11;102496.53;5016087;28;20084;-81
2021/06/08 04:15:51;;;;;;;0.00;0.00;;;;;;;17.88;58.93;102498.38;5014491;28;20041;-81
2021/06/08 04:18:20;;;;;;;0.15;0.15;;;;;;;17.93;59.30;102493.78;5013984;28;20434;-81
2021/06/08 04:20:47;;;;;;;0.10;0.10;;;;;;;17.93;59.90;102504.50;5020628;28;20033;-81
2021/06/08 04:23:14;;;;;;;0.35;0.22;;;;;;;17.94;59.61;102495.56;5016603;28;20392;-81
2021/06/08 04:25:43;;;;;;;0.00;0.00;;;;;;;17.95;60.03;102492.84;5014279;28;20070;-81
2021/06/08 04:28:09;;;;;;;0.10;0.10;;;;;;;17.95;59.92;102502.69;5015217;28;20060;-81
2021/06/08 04:30:35;;;;;;;0.35;0.35;;;;;;;17.95;59.87;102498.22;5014633;28;20056;-81
2021/06/08 04:33:02;;;;;;;0.10;0.10;;;;;;;17.97;60.08;102500.88;5013748;28;20022;-81
2021/06/08 04:35:28;;;;;;;0.00;0.00;;;;;;;17.98;59.89;102502.63;5016096;28;20508;-81
2021/06/08 04:37:54;;;;;;;0.10;0.10;;;;;;;18.02;60.05;102504.31;5014022;28;20029;-80
2021/06/08 04:40:21;;;;;;;0.10;0.10;;;;;;;18.04;59.71;102501.59;5026289;28;20030;-81
2021/06/08 04:42:49;;;;;;;0.00;0.00;;;;;;;18.04;59.64;102507.81;5013755;28;20037;-81
2021/06/08 04:45:16;;;;;;;0.10;0.10;;;;;;;18.04;60.02;102497.09;5014975;28;20131;-80
2021/06/08 04:47:42;;;;;;;0.10;0.10;;;;;;;18.05;59.85;102500.69;5016491;28;20088;-80
2021/06/08 04:50:11;;;;;;;0.10;0.10;;;;;;;18.10;59.24;102504.13;5016621;28;20195;-81
2021/06/08 04:52:37;;;;;;;0.00;0.00;;;;;;;18.11;59.15;102504.06;5012868;28;20037;-81
2021/06/08 04:55:06;;;;;;;0.10;0.10;;;;;;;18.13;59.67;102505.84;5018617;28;20037;-81
2021/06/08 04:57:33;;;;;;;0.00;0.00;;;;;;;18.18;59.50;102509.28;5022652;28;20136;-80
2021/06/08 05:00:10;;;;;;;0.10;0.10;;;;;;;18.25;59.29;102506.41;5015540;28;20397;-80
2021/06/08 05:03:02;;;;;;;0.08;0.08;;;;;;;18.30;59.08;102508.97;5018278;28;20128;-81
2021/06/08 05:05:31;;;;;;;0.80;0.73;;;;;;;18.27;59.88;102499.19;5018717;28;20046;-81
2021/06/08 05:08:11;;;;;;;0.43;0.43;;;;;;;18.32;59.81;102507.13;5013838;28;20140;-81
2021/06/08 05:10:44;;;;;;;0.10;0.10;;;;;;;18.35;59.23;102511.53;5016747;28;20060;-81
2021/06/08 05:13:11;;;;;;;0.08;0.08;;;;;;;18.35;59.05;102504.34;5008609;28;20053;-81
2021/06/08 05:15:38;;;;;;;0.10;0.10;;;;;;;18.39;59.07;102511.44;5014250;28;20041;-82
2021/06/08 05:18:10;;;;;;;0.03;0.03;;;;;;;18.42;59.36;102511.34;5004022;28;20058;-81
2021/06/08 05:20:41;;;;;;;0.03;0.03;;;;;;;18.48;59.53;102512.09;5014127;28;20037;-80
2021/06/08 05:23:09;;;;;;;0.00;0.00;;;;;;;18.48;58.93;102506.72;5018861;28;20026;-82
2021/06/08 05:25:37;;;;;;;0.03;0.03;;;;;;;18.51;59.26;102506.66;5013431;28;20083;-81
2021/06/08 05:28:06;;;;;;;0.10;0.10;;;;;;;18.54;58.73;102510.16;5012810;28;20037;-81
2021/06/08 05:30:33;;;;;;;0.15;0.15;;;;;;;18.55;58.63;102509.19;5012832;28;20037;-81
2021/06/08 05:32:59;;;;;;;0.10;0.10;;;;;;;18.55;59.56;102513.69;5017013;28;20520;-81
2021/06/08 05:35:28;;;;;;;0.10;0.10;;;;;;;18.63;58.93;102511.69;5017488;28;20565;-82
2021/06/08 05:38:01;;;;;;;0.45;0.38;;;;;;;18.68;58.88;102512.44;5014630;28;20045;-81
2021/06/08 05:40:27;;;;;;;0.65;0.63;;;;;;;18.69;58.62;102516.91;5011665;28;20133;-80
2021/06/08 05:42:53;;;;;;;0.43;0.35;;;;;;;18.75;58.29;102511.34;5014300;28;20032;-82
2021/06/08 05:45:20;;;;;;;1.00;1.00;;;;;;;18.74;58.81;102509.59;5008324;28;20034;-82
2021/06/08 05:47:46;;;;;;;0.08;0.08;;;;;;;18.79;58.54;102522.00;5010652;28;20088;-82
2021/06/08 05:50:12;;;;;;;0.10;0.10;;;;;;;18.79;58.93;102520.22;5011016;28;20167;-82
2021/06/08 05:52:39;;;;;;;0.20;0.20;;;;;;;18.80;58.76;102523.75;5011281;28;20041;-82
2021/06/08 05:55:06;;;;;;;0.13;0.13;;;;;;;18.89;58.86;102512.75;5010368;28;20030;-82
2021/06/08 05:57:33;;;;;;;0.00;0.00;;;;;;;18.92;58.61;102516.25;5010279;28;20509;-82
2021/06/08 06:00:09;;;;;;;0.10;0.10;;;;;;;18.96;58.78;102514.38;5028199;22;20034;-86
2021/06/08 06:02:35;;;;;;;0.80;0.80;;;;;;;19.01;58.84;102517.81;5019386;28;20464;-88
2021/06/08 06:05:03;;;;;;;0.52;0.52;;;;;;;19.08;59.07;102511.34;5012553;28;20057;-90
2021/06/08 06:07:33;;;;;;;0.10;0.10;;;;;;;19.14;58.46;102514.75;5014049;28;20034;-89
2021/06/08 06:10:00;;;;;;;0.17;0.17;;;;;;;19.21;57.88;102516.34;5019719;28;20030;-96
2021/06/08 06:12:31;;;;;;;0.10;0.10;;;;;;;19.14;58.63;102517.44;5025307;28;20072;-94
2021/06/08 06:15:06;;;;;;;0.08;0.08;;;;;;;19.32;57.96;102516.03;5013477;28;20010;-96
2021/06/08 06:17:38;;;;;;;0.00;0.00;;;;;;;19.37;57.83;102514.09;5021653;28;20113;-84
2021/06/08 06:20:09;;;;;;;1.13;0.98;;;;;;;19.38;57.60;102516.72;5012577;28;20026;-85
2021/06/08 06:22:36;;;;;;;0.08;0.08;;;;;;;19.47;57.36;102522.75;5012530;28;20562;-84
2021/06/08 06:25:05;;;;;;;0.20;0.20;;;;;;;19.53;57.15;102520.75;5012962;28;20053;-84
2021/06/08 06:27:35;;;;;;;0.25;0.25;;;;;;;19.62;57.03;102521.41;5012455;28;20393;-84
2021/06/08 06:30:02;;;;;;;0.10;0.10;;;;;;;19.65;56.48;102523.97;5011203;28;20018;-84
2021/06/08 06:32:29;;;;;;;0.00;0.00;;;;;;;19.64;56.24;102523.09;5011920;28;20038;-83
2021/06/08 06:34:55;;;;;;;0.10;0.10;;;;;;;19.73;56.24;102525.50;5012859;28;20084;-84
2021/06/08 06:37:24;;;;;;;0.25;0.25;;;;;;;19.75;56.28;102524.56;5012451;28;20030;-83
2021/06/08 06:39:52;;;;;;;0.10;0.10;;;;;;;19.81;56.08;102519.88;5012488;28;20030;-84
2021/06/08 06:42:22;;;;;;;0.10;0.10;;;;;;;19.92;55.61;102516.84;5012324;28;20033;-80
2021/06/08 06:44:49;;;;;;;0.10;0.10;;;;;;;19.94;55.01;102515.00;5012417;28;20038;-84
2021/06/08 06:47:17;;;;;;;0.20;0.20;;;;;;;20.05;55.43;102517.34;5012499;28;20033;-84
2021/06/08 06:49:43;;;;;;;0.10;0.10;;;;;;;20.10;55.08;102512.69;5008836;28;20029;-84
2021/06/08 06:52:11;;;;;;;0.05;0.05;;;;;;;20.20;55.22;102513.28;5015549;28;20037;-84
2021/06/08 06:54:38;;;;;;;0.10;0.10;;;;;;;20.23;55.05;102520.34;5015918;28;20029;-84
2021/06/08 06:57:05;;;;;;;0.10;0.10;;;;;;;20.34;54.58;102520.88;5016682;28;20030;-85
2021/06/08 06:59:32;;;;;;;0.75;0.75;;;;;;;20.39;54.45;102515.28;5016163;28;20117;-84
2021/06/08 07:01:59;;;;;;;0.10;0.10;;;;;;;20.48;54.60;102523.06;5008735;28;20089;-84
2021/06/08 07:04:27;;;;;;;0.00;0.00;;;;;;;20.55;54.25;102521.94;5000239;28;20034;-83
2021/06/08 07:06:54;;;;;;;1.08;0.68;;;;;;;20.59;54.09;102518.19;4996680;28;20085;-84
2021/06/08 07:09:28;;;;;;;0.20;0.20;;;;;;;20.73;53.71;102519.53;4997772;28;20031;-84
2021/06/08 07:11:55;;;;;;;0.28;0.28;;;;;;;20.76;53.94;102525.69;5004387;28;20177;-84
2021/06/08 07:14:23;;;;;;;0.03;0.03;;;;;;;20.83;53.74;102520.94;5015307;28;20045;-84
2021/06/08 07:16:53;;;;;;;0.10;0.10;;;;;;;20.92;53.27;102517.94;5012670;28;20041;-84
2021/06/08 07:19:20;;;;;;;0.05;0.05;;;;;;;21.01;53.56;102519.41;5016459;28;20025;-85
2021/06/08 07:21:47;;;;;;;0.10;0.10;;;;;;;21.07;52.95;102518.28;5016147;28;20374;-85
2021/06/08 07:24:15;;;;;;;0.70;0.70;;;;;;;21.17;53.32;102519.69;5016062;28;20040;-85
2021/06/08 07:26:41;;;;;;;0.00;0.00;;;;;;;21.29;53.08;102510.25;5016443;28;20121;-85
2021/06/08 07:29:10;;;;;;;0.10;0.10;;;;;;;21.40;52.85;102509.84;5015324;28;20100;-83
2021/06/08 07:34:33;;;;;;;0.20;0.20;;;;;;;21.49;51.86;102510.34;4463028;27;16844851;-81
2021/06/08 07:36:59;;;;;;;0.10;0.10;;;;;;;21.55;51.56;102505.66;5090214;28;20036;-80
2021/06/08 07:39:41;;;;;;;0.10;0.10;;;;;;;21.78;51.46;102507.44;5089898;28;20020;-81
2021/06/08 07:45:08;;;;;;;0.10;0.10;;;;;;;21.89;49.02;102501.63;5054489;28;20412;-81
2021/06/08 07:47:35;;;;;;;0.25;0.25;;;;;;;22.03;50.74;102498.34;5069786;28;20373;-79
2021/06/08 07:50:05;;;;;;;0.10;0.10;;;;;;;22.10;49.68;102502.53;5065748;28;20083;-79
2021/06/08 07:52:34;;;;;;;0.73;0.73;;;;;;;22.10;46.66;102502.53;5049844;28;20102;-80
2021/06/08 07:55:01;;;;;;;0.10;0.10;;;;;;;22.34;48.63;102502.41;5049908;28;20171;-79
2021/06/08 07:57:28;;;;;;;0.55;0.55;;;;;;;22.38;48.39;102509.47;5049568;28;20025;-79
2021/06/08 07:59:55;;;;;;;0.05;0.05;;;;;;;22.49;48.43;102501.78;5049885;28;20112;-80
2021/06/08 08:02:23;;;;;;;0.00;0.00;;;;;;;22.60;48.47;102506.72;5048482;28;20037;-81
2021/06/08 08:04:51;;;;;;;0.00;0.00;;;;;;;22.69;46.33;102503.59;5048871;28;20037;-79
2021/06/08 08:07:26;;;;;;;0.10;0.10;;;;;;;22.81;47.35;102504.88;5047341;28;20492;-80
2021/06/08 08:09:54;;;;;;;0.30;0.30;;;;;;;22.87;46.63;102499.19;5018799;28;20103;-80
2021/06/08 08:12:22;;;;;;;0.10;0.10;;;;;;;22.97;46.53;102501.44;5030224;28;20381;-80
2021/06/08 08:14:51;;;;;;;0.00;0.00;;;;;;;23.03;45.99;102501.16;5047833;28;20033;-80
2021/06/08 08:17:22;;;;;;;0.30;0.30;;;;;;;23.01;45.27;102493.13;5045671;28;20036;-80
2021/06/08 08:19:49;;;;;;;0.20;0.20;;;;;;;23.22;45.92;102485.88;5042721;28;20099;-81
2021/06/08 08:22:15;;;;;;;0.10;0.10;;;;;;;23.27;44.78;102491.94;5031125;28;20034;-80
2021/06/08 08:24:41;;;;;;;0.00;0.00;;;;;;;23.41;44.95;102491.28;5032727;28;20033;-80
2021/06/08 08:27:08;;;;;;;0.20;0.20;;;;;;;23.47;43.98;102486.53;5031253;28;20030;-81
2021/06/08 08:29:35;;;;;;;0.30;0.20;;;;;;;23.61;45.65;102477.72;5032540;28;20470;-80
2021/06/08 08:32:01;;;;;;;0.10;0.10;;;;;;;23.73;45.64;102474.41;5031345;28;20420;-81
2021/06/08 08:34:27;;;;;;;0.00;0.00;;;;;;;23.77;45.04;102476.00;5030936;28;20361;-80
2021/06/08 08:36:54;;;;;;;0.00;0.00;;;;;;;23.86;44.88;102480.97;5032287;28;20029;-80
2021/06/08 08:39:20;;;;;;;0.47;0.20;;;;;;;23.94;43.42;102471.59;5041522;28;20029;-81
2021/06/08 08:41:46;;;;;;;0.00;0.00;;;;;;;24.01;43.69;102470.34;5048718;28;20071;-81
2021/06/08 08:44:12;;;;;;;3.63;1.08;;;;;;;24.08;43.54;102471.78;5048878;28;20033;-80
2021/06/08 08:46:39;;;;;;;0.08;0.08;;;;;;;24.19;42.35;102463.97;5048749;28;20083;-80
2021/06/08 08:49:07;;;;;;;0.00;0.00;;;;;;;24.25;40.11;102461.91;5046317;28;20500;-80
2021/06/08 08:51:34;;;;;;;0.00;0.00;;;;;;;24.36;41.95;102463.09;5032255;28;20026;-80
2021/06/08 08:54:01;;;;;;;0.08;0.08;;;;;;;24.48;41.36;102461.56;5036620;28;20048;-80
2021/06/08 08:56:34;;;;;;;0.03;0.03;;;;;;;24.60;41.44;102457.31;5020271;28;20013;-80
2021/06/08 08:59:16;;;;;;;0.80;0.75;;;;;;;24.57;36.47;102462.03;5024746;28;20052;-80
2021/06/08 09:01:46;;;;;;;0.10;0.10;;;;;;;24.70;39.03;102455.03;5020579;28;20034;-80
2021/06/08 09:04:13;;;;;;;0.00;0.00;;;;;;;24.66;35.58;102459.72;5015592;28;20033;-80
2021/06/08 09:06:40;;;;;;;0.03;0.03;;;;;;;24.85;38.58;102454.16;5020028;28;20034;-80
2021/06/08 09:09:08;;;;;;;0.30;0.30;;;;;;;24.97;38.58;102457.16;5024250;28;20045;-81
2021/06/08 09:11:41;;;;;;;0.50;0.50;;;;;;;25.06;35.17;102453.06;5013973;28;20030;-79
2021/06/08 09:14:09;;;;;;;0.00;0.00;;;;;;;25.14;37.07;102451.66;5023350;28;20026;-80
2021/06/08 09:16:36;;;;;;;0.10;0.10;;;;;;;25.18;35.90;102445.13;5020409;28;20029;-80
2021/06/08 09:19:07;;;;;;;0.10;0.10;;;;;;;25.36;34.54;102447.75;5022131;28;20056;-80
2021/06/08 09:21:38;;;;;;;0.10;0.10;;;;;;;25.46;35.69;102453.53;5021415;28;20033;-80
2021/06/08 09:24:25;;;;;;;0.00;0.00;;;;;;;25.55;36.63;102436.72;5021215;28;20540;-80
2021/06/08 09:27:03;;;;;;;0.00;0.00;;;;;;;25.62;35.96;102448.97;5019619;28;20034;-80
2021/06/08 09:35:03;;;;;;;0.10;0.10;;;;;;;25.92;33.92;102445.41;5056007;28;20158;-80
2021/06/08 09:40:28;;;;;;;0.88;0.75;;;;;;;26.14;33.68;102452.28;5083676;27;20147;-80
2021/06/08 09:43:11;;;;;;;0.10;0.10;;;;;;;26.20;33.80;102449.19;5069968;28;20040;-79
2021/06/08 09:45:46;;;;;;;0.00;0.00;;;;;;;26.28;34.23;102451.44;5069749;28;20831;-79
2021/06/08 09:48:13;;;;;;;0.00;0.00;;;;;;;26.31;33.88;102449.41;5068499;28;20369;-79
2021/06/08 09:50:42;;;;;;;0.20;0.20;;;;;;;26.40;33.51;102450.66;5064122;28;20039;-81
2021/06/08 09:53:29;;;;;;;0.08;0.08;;;;;;;26.55;32.36;102447.97;5069724;28;20025;-80
2021/06/08 09:56:11;;;;;;;0.10;0.10;;;;;;;26.62;33.52;102446.63;5061663;28;20017;-80
2021/06/08 09:58:46;;;;;;;0.00;0.00;;;;;;;26.61;33.63;102447.59;5069454;28;20082;-80
2021/06/08 10:01:21;;;;;;;0.00;0.00;;;;;;;26.67;32.12;102447.22;5069438;28;20025;-80
2021/06/08 10:03:52;;;;;;;0.00;0.00;;;;;;;26.72;32.43;102447.78;5069487;28;20040;-80
2021/06/08 10:06:23;;;;;;;0.00;0.00;;;;;;;26.57;33.56;102441.47;5069308;28;20033;-80
2021/06/08 10:09:10;;;;;;;0.35;0.35;;;;;;;26.83;33.05;102446.25;5069261;28;20267;-80
2021/06/08 10:11:39;;;;;;;0.00;0.00;;;;;;;26.76;33.63;102448.50;5069145;28;20426;-80
2021/06/08 10:14:21;;;;;;;0.10;0.10;;;;;;;27.00;31.82;102443.31;5069260;28;20033;-81
2021/06/08 10:17:03;;;;;;;0.43;0.20;;;;;;;27.00;33.62;102437.88;5068846;28;20365;-81
2021/06/08 10:19:29;;;;;;;0.10;0.10;;;;;;;27.18;33.49;102440.38;5059358;28;20111;-80
2021/06/08 10:21:56;;;;;;;0.10;0.10;;;;;;;27.17;33.00;102444.09;5068893;28;20592;-81
2021/06/08 10:24:24;;;;;;;0.10;0.10;;;;;;;27.26;32.43;102435.31;5069049;28;20375;-80
2021/06/08 10:26:53;;;;;;;0.10;0.10;;;;;;;27.32;32.66;102437.63;5068899;28;20055;-80
2021/06/08 10:29:23;;;;;;;0.10;0.10;;;;;;;27.39;32.87;102433.53;5068907;28;20044;-80
2021/06/08 10:31:50;;;;;;;0.08;0.08;;;;;;;27.43;32.82;102432.38;5069525;28;20048;-80
2021/06/08 10:34:16;;;;;;;0.00;0.00;;;;;;;27.48;31.62;102432.06;5068893;28;20025;-80
2021/06/08 10:36:44;;;;;;;0.10;0.10;;;;;;;27.47;31.78;102430.31;5068859;28;20028;-80
2021/06/08 10:39:13;;;;;;;0.15;0.15;;;;;;;27.48;32.13;102423.00;5068552;28;20028;-80
2021/06/08 10:41:43;;;;;;;0.00;0.00;;;;;;;27.60;32.33;102427.63;5068486;28;20029;-80
2021/06/08 10:47:32;;;;;;;0.10;0.10;;;;;;;27.80;30.51;102426.25;5088852;27;20246;-80
2021/06/08 10:49:58;;;;;;;0.10;0.10;;;;;;;27.70;31.74;102426.03;5087145;28;20674;-80
2021/06/08 10:52:26;;;;;;;0.00;0.00;;;;;;;27.89;31.83;102424.78;5070072;28;20079;-80
2021/06/08 10:54:54;;;;;;;0.10;0.10;;;;;;;27.92;31.71;102419.13;5069886;28;20120;-80
2021/06/08 10:57:20;;;;;;;0.10;0.10;;;;;;;28.04;31.50;102426.47;5069888;28;20029;-80
2021/06/08 10:59:50;;;;;;;0.00;0.00;;;;;;;28.00;31.04;102426.75;5069669;28;20029;-80
2021/06/08 11:02:44;;;;;;;0.20;0.20;;;;;;;28.20;29.93;102417.22;5069503;28;20391;-81
2021/06/08 11:05:12;;;;;;;0.00;0.00;;;;;;;28.03;31.23;102423.81;5069419;28;20394;-81
2021/06/08 11:15:49;;;;;;;0.10;0.10;;;;;;;28.58;30.39;102421.78;5123005;27;20121;-80
2021/06/08 11:23:43;;;;;;;0.10;0.10;;;;;;;28.85;30.53;102418.09;5088874;28;20160;-80
2021/06/08 11:26:18;;;;;;;0.10;0.10;;;;;;;28.93;28.52;102410.19;5090105;28;20028;-80
2021/06/08 11:28:48;;;;;;;0.00;0.00;;;;;;;28.80;28.88;102414.78;5090444;28;20467;-80
2021/06/08 11:31:17;;;;;;;0.00;0.00;;;;;;;28.87;30.01;102407.91;5076396;28;20112;-80
2021/06/08 11:33:46;;;;;;;0.00;0.00;;;;;;;28.87;29.85;102416.97;5069790;28;20112;-80
2021/06/08 11:44:37;;;;;;;0.00;0.00;;;;;;;28.80;27.68;102399.31;5088934;27;20175;-81
2021/06/08 11:47:05;;;;;;;0.00;0.00;;;;;;;28.86;29.45;102401.59;5089960;28;20143;-80
2021/06/08 11:49:33;;;;;;;0.00;0.00;;;;;;;29.08;28.76;102401.88;5090341;28;20021;-81
2021/06/08 11:54:46;;;;;;;0.30;0.30;;;;;;;29.09;27.97;102399.00;5090098;27;20163;-80
2021/06/08 11:57:14;;;;;;;0.05;0.05;;;;;;;29.18;27.32;102390.13;5090039;28;20108;-81
2021/06/08 12:02:43;;;;;;;0.00;0.00;;;;;;;29.40;29.39;102393.13;5088808;27;20177;-80
2021/06/08 12:10:39;;;;;;;0.00;0.00;;;;;;;29.85;27.39;102387.84;5082132;27;20163;-81
2021/06/08 12:13:07;;;;;;;0.10;0.10;;;;;;;29.94;27.90;102384.41;5069854;28;20024;-81
2021/06/08 12:15:38;;;;;;;0.00;0.00;;;;;;;30.00;28.69;102378.47;5069585;28;20112;-81
2021/06/08 12:20:47;;;;;;;0.00;0.00;;;;;;;30.21;28.50;102377.75;5079900;27;20164;-80
2021/06/08 12:29:12;;;;;;;0.10;0.10;;;;;;;30.80;27.92;102370.31;5088946;27;20617;-81
2021/06/08 12:31:39;;;;;;;0.00;0.00;;;;;;;30.79;27.90;102368.56;5073912;28;20029;-80
2021/06/08 12:34:22;;;;;;;0.17;0.17;;;;;;;31.00;26.32;102367.78;5069834;28;20033;-80
2021/06/08 12:36:49;;;;;;;0.00;0.00;;;;;;;30.97;27.53;102368.91;5070080;28;20040;-80